TAF EGLL
EGLL 072253Z 0800/0906 21012KT 9999 FEW030 PROB40 TEMPO 0800/0807 21017G27KT BECMG 0807/0809 23016G28KT PROB30 TEMPO 0800/0818 7000 SHRA BKN012 PROB40 TEMPO 0818/0903 6000 SHRA BKN008 BECMG 0821/0824 26012KT=
METAR EGLL
WC EGLL
WS EGLL
WV EGLL